Nearby METAR Reports

 

LIBV - Gioia Del Colle, Italy
Distance from station: EKA 15km
Päivitetty: 18/09/2019 12:55
Puolipilvistä
Puolipilvistä
 Tuulen suunta ELO
Tuuli: ELO 11 km/h
Lämpötila: 29°C
Kastepiste: 12°C
Kosteus: 35%
Ilmanpaine: 1015 hPa
Clouds: Puolipilvistä
Visibility: 10 km
Cloud details: Few Clouds 914 m
Puolipilvistä 1524 m
2019/09/18 10:55 LIBV 181055Z 20006KT 9999 FEW030 SCT050 29/12 Q1015 RMK BKN VIS MIN 9999 WIND THR32 16005KT WIND THR14 19007KT BLU
LIBD - Bari/Palese Macc, Italy
Distance from station: PLU 26km
Päivitetty: 18/09/2019 12:50
Selkeätä
Selkeätä
 Tuulen suunta I
Tuuli: I 13 km/h
Lämpötila: 28°C
Heat Index: 28°C
Kastepiste: 17°C
Kosteus: 51%
Ilmanpaine: 1015 hPa
Yhteenveto: Selkeätä
Visibility: greater than 10 km
2019/09/18 10:50 LIBD 181050Z 09007KT 060V120 CAVOK 28/17 Q1015
 
LIBH - Marina Di Ginosa, Italy
Distance from station: E 53km
Päivitetty: 18/09/2019 12:55
Selkeätä
Selkeätä
 Tuulen suunta KA
Tuuli: KA 15 km/h
Lämpötila: 31°C
Heat Index: 35°C
Kastepiste: 22°C
Kosteus: 59%
Ilmanpaine: 1014 hPa
Yhteenveto: Selkeätä
Visibility: greater than 10 km
2019/09/18 10:55 LIBH 181055Z 14008KT CAVOK 31/22 Q1014 RMK SKC QUK 1 QUL 0 VIS MAR 20 KM VIS MIN 9999
LIBG - Grottaglie(Civ/A, Italy
Distance from station: KA 61km
Päivitetty: 18/09/2019 12:50
Few Clouds
Few Clouds
 Tuulen suunta calm
Tuuli: Tyyntä
Lämpötila: 31°C
Heat Index: 32°C
Kastepiste: 17°C
Kosteus: 43%
Ilmanpaine: 1014 hPa
Clouds: Few Clouds
Visibility: 10 km
Cloud details: Few Clouds 914 m
2019/09/18 10:50 LIBG 181050Z 00000KT 9999 FEW030 31/17 Q1014
 
LIBR - Brindisi/Casale, Italy
Distance from station: IKA 96km
Päivitetty: 18/09/2019 12:50
Few Clouds
Few Clouds
 Tuulen suunta IKO
Tuuli: IKO 13 km/h
Lämpötila: 27°C
Heat Index: 29°C
Kastepiste: 20°C
Kosteus: 66%
Ilmanpaine: 1015 hPa
Clouds: Few Clouds
Visibility: 10 km
Cloud details: Few Clouds 914 m
2019/09/18 10:50 LIBR 181050Z 06007KT 9999 FEW030 27/20 Q1015
LIBA - Amendola (it-Afb, Italy
Distance from station: LU 118km
Päivitetty: 18/09/2019 12:55
Few Clouds
Few Clouds
 Tuulen suunta LO
Tuuli: LO 7 km/h
Lämpötila: 30°C
Heat Index: 30°C
Kastepiste: 16°C
Kosteus: 43%
Ilmanpaine: 1014 hPa
Clouds: Few Clouds
Visibility: 10 km
Cloud details: Few Clouds 914 m
2019/09/18 10:55 LIBA 181055Z 23004KT 9999 FEW030 30/16 Q1014 RMK FEW VIS MIN 9999 WIND THR11 16004KT WIND THR29 /////KT BLU
 
LIBF - Foggia/Gino Lisa, Italy
Distance from station: LLU 126km
Päivitetty: 18/09/2019 12:50
Selkeätä
Selkeätä
 Tuulen suunta varies
Tuuli: varies 7 km/h
Lämpötila: 30°C
Heat Index: 29°C
Kastepiste: 15°C
Kosteus: 40%
Ilmanpaine: 1014 hPa
Yhteenveto: Selkeätä
Visibility: greater than 10 km
2019/09/18 10:50 LIBF 181050Z VRB04KT CAVOK 30/15 Q1014
LIBN - Lecce (it-Afb), Italy
Distance from station: KA 132km
Päivitetty: 18/09/2019 12:55
Few Clouds
Few Clouds
 Tuulen suunta varies
Tuuli: varies 2 km/h
Lämpötila: 30°C
Heat Index: 32°C
Kastepiste: 20°C
Kosteus: 55%
Ilmanpaine: 1015 hPa
Clouds: Few Clouds
Visibility: 10 km
Cloud details: Few Clouds 914 m
2019/09/18 10:55 LIBN 181055Z VRB01KT 9999 FEW030TCU 30/20 Q1015 RMK SCT VIS MIN 9999 WIND THR14 11004KT WIND THR32 16003KT BLU